sensor_id;sensor_type;location;lat;lon;timestamp;P1;durP1;ratioP1;P2;durP2;ratioP2
6825;SDS011;3451;52.476;13.316;2023-05-14T00:00:27;14.30;;;9.50;;
6825;SDS011;3451;52.476;13.316;2023-05-14T00:02:54;14.20;;;9.77;;
6825;SDS011;3451;52.476;13.316;2023-05-14T00:05:21;11.07;;;9.00;;
6825;SDS011;3451;52.476;13.316;2023-05-14T00:07:48;12.37;;;10.07;;
6825;SDS011;3451;52.476;13.316;2023-05-14T00:10:14;13.83;;;9.37;;
6825;SDS011;3451;52.476;13.316;2023-05-14T00:12:40;11.60;;;9.30;;
6825;SDS011;3451;52.476;13.316;2023-05-14T00:15:07;12.50;;;9.50;;
6825;SDS011;3451;52.476;13.316;2023-05-14T00:17:33;14.63;;;9.60;;
6825;SDS011;3451;52.476;13.316;2023-05-14T00:19:59;13.27;;;9.20;;
6825;SDS011;3451;52.476;13.316;2023-05-14T00:22:26;12.37;;;8.97;;
6825;SDS011;3451;52.476;13.316;2023-05-14T00:24:53;12.93;;;9.27;;
6825;SDS011;3451;52.476;13.316;2023-05-14T00:27:19;11.47;;;9.03;;
6825;SDS011;3451;52.476;13.316;2023-05-14T00:29:45;11.83;;;8.70;;
6825;SDS011;3451;52.476;13.316;2023-05-14T00:32:11;12.90;;;9.63;;
6825;SDS011;3451;52.476;13.316;2023-05-14T00:34:38;11.57;;;8.93;;
6825;SDS011;3451;52.476;13.316;2023-05-14T00:37:04;12.40;;;9.30;;
6825;SDS011;3451;52.476;13.316;2023-05-14T00:39:30;13.90;;;9.00;;
6825;SDS011;3451;52.476;13.316;2023-05-14T00:41:57;14.23;;;8.73;;
6825;SDS011;3451;52.476;13.316;2023-05-14T00:44:23;14.53;;;9.50;;
6825;SDS011;3451;52.476;13.316;2023-05-14T00:46:50;15.13;;;9.70;;
6825;SDS011;3451;52.476;13.316;2023-05-14T00:49:17;12.93;;;8.97;;
6825;SDS011;3451;52.476;13.316;2023-05-14T00:51:43;12.40;;;9.10;;
6825;SDS011;3451;52.476;13.316;2023-05-14T00:54:14;12.53;;;9.40;;
6825;SDS011;3451;52.476;13.316;2023-05-14T00:56:42;12.17;;;9.30;;
6825;SDS011;3451;52.476;13.316;2023-05-14T00:59:10;12.93;;;9.23;;
6825;SDS011;3451;52.476;13.316;2023-05-14T01:01:36;12.90;;;9.23;;
6825;SDS011;3451;52.476;13.316;2023-05-14T01:04:02;13.30;;;9.10;;
6825;SDS011;3451;52.476;13.316;2023-05-14T01:06:39;11.90;;;9.60;;
6825;SDS011;3451;52.476;13.316;2023-05-14T01:09:12;14.70;;;10.30;;
6825;SDS011;3451;52.476;13.316;2023-05-14T01:11:50;11.70;;;9.00;;
6825;SDS011;3451;52.476;13.316;2023-05-14T01:14:27;17.20;;;9.30;;
6825;SDS011;3451;52.476;13.316;2023-05-14T01:16:57;16.77;;;9.53;;
6825;SDS011;3451;52.476;13.316;2023-05-14T01:19:38;13.40;;;9.93;;
6825;SDS011;3451;52.476;13.316;2023-05-14T01:22:04;13.07;;;9.57;;
6825;SDS011;3451;52.476;13.316;2023-05-14T01:24:31;13.43;;;9.53;;
6825;SDS011;3451;52.476;13.316;2023-05-14T01:29:31;12.03;;;9.13;;
6825;SDS011;3451;52.476;13.316;2023-05-14T01:31:58;13.90;;;8.77;;
6825;SDS011;3451;52.476;13.316;2023-05-14T01:34:25;12.27;;;8.67;;
6825;SDS011;3451;52.476;13.316;2023-05-14T01:36:53;11.20;;;8.60;;
6825;SDS011;3451;52.476;13.316;2023-05-14T01:39:21;12.90;;;9.27;;
6825;SDS011;3451;52.476;13.316;2023-05-14T01:41:48;12.27;;;8.40;;
6825;SDS011;3451;52.476;13.316;2023-05-14T01:44:14;11.27;;;9.20;;
6825;SDS011;3451;52.476;13.316;2023-05-14T01:46:41;12.10;;;8.50;;
6825;SDS011;3451;52.476;13.316;2023-05-14T01:49:07;13.03;;;8.50;;
6825;SDS011;3451;52.476;13.316;2023-05-14T01:51:34;11.17;;;8.20;;
6825;SDS011;3451;52.476;13.316;2023-05-14T01:54:00;11.40;;;8.47;;
6825;SDS011;3451;52.476;13.316;2023-05-14T01:56:26;11.70;;;8.90;;
6825;SDS011;3451;52.476;13.316;2023-05-14T01:58:52;11.50;;;8.43;;
6825;SDS011;3451;52.476;13.316;2023-05-14T02:01:21;10.67;;;7.83;;
6825;SDS011;3451;52.476;13.316;2023-05-14T02:03:47;8.83;;;6.80;;
6825;SDS011;3451;52.476;13.316;2023-05-14T02:06:13;10.47;;;7.40;;
6825;SDS011;3451;52.476;13.316;2023-05-14T02:08:40;8.70;;;6.83;;
6825;SDS011;3451;52.476;13.316;2023-05-14T02:11:06;9.83;;;7.30;;
6825;SDS011;3451;52.476;13.316;2023-05-14T02:13:32;8.77;;;6.97;;
6825;SDS011;3451;52.476;13.316;2023-05-14T02:15:58;13.23;;;6.90;;
6825;SDS011;3451;52.476;13.316;2023-05-14T02:18:25;8.80;;;7.17;;
6825;SDS011;3451;52.476;13.316;2023-05-14T02:20:51;9.43;;;6.83;;
6825;SDS011;3451;52.476;13.316;2023-05-14T02:23:17;11.47;;;6.50;;
6825;SDS011;3451;52.476;13.316;2023-05-14T02:25:50;8.73;;;6.80;;
6825;SDS011;3451;52.476;13.316;2023-05-14T02:28:17;10.73;;;6.63;;
6825;SDS011;3451;52.476;13.316;2023-05-14T02:30:43;13.27;;;6.87;;
6825;SDS011;3451;52.476;13.316;2023-05-14T02:33:09;9.77;;;6.37;;
6825;SDS011;3451;52.476;13.316;2023-05-14T02:35:36;13.30;;;6.30;;
6825;SDS011;3451;52.476;13.316;2023-05-14T02:38:02;7.80;;;5.73;;
6825;SDS011;3451;52.476;13.316;2023-05-14T02:40:28;9.97;;;6.23;;
6825;SDS011;3451;52.476;13.316;2023-05-14T02:42:55;9.37;;;6.03;;
6825;SDS011;3451;52.476;13.316;2023-05-14T02:45:21;9.77;;;5.63;;
6825;SDS011;3451;52.476;13.316;2023-05-14T02:47:47;11.17;;;6.07;;
6825;SDS011;3451;52.476;13.316;2023-05-14T02:50:14;12.43;;;6.07;;
6825;SDS011;3451;52.476;13.316;2023-05-14T02:52:40;13.40;;;5.97;;
6825;SDS011;3451;52.476;13.316;2023-05-14T02:55:06;11.17;;;6.50;;
6825;SDS011;3451;52.476;13.316;2023-05-14T02:57:33;8.30;;;5.60;;
6825;SDS011;3451;52.476;13.316;2023-05-14T02:59:59;8.63;;;6.00;;
6825;SDS011;3451;52.476;13.316;2023-05-14T03:02:26;7.70;;;5.50;;
6825;SDS011;3451;52.476;13.316;2023-05-14T03:04:53;9.00;;;5.90;;
6825;SDS011;3451;52.476;13.316;2023-05-14T03:07:19;9.67;;;6.10;;
6825;SDS011;3451;52.476;13.316;2023-05-14T03:09:45;9.60;;;6.20;;
6825;SDS011;3451;52.476;13.316;2023-05-14T03:12:11;7.03;;;6.03;;
6825;SDS011;3451;52.476;13.316;2023-05-14T03:14:39;7.57;;;5.70;;
6825;SDS011;3451;52.476;13.316;2023-05-14T03:17:05;8.20;;;5.87;;
6825;SDS011;3451;52.476;13.316;2023-05-14T03:19:32;9.97;;;6.10;;
6825;SDS011;3451;52.476;13.316;2023-05-14T03:21:58;9.47;;;5.87;;
6825;SDS011;3451;52.476;13.316;2023-05-14T03:24:24;9.53;;;6.37;;
6825;SDS011;3451;52.476;13.316;2023-05-14T03:26:50;8.23;;;6.30;;
6825;SDS011;3451;52.476;13.316;2023-05-14T03:29:17;8.30;;;6.30;;
6825;SDS011;3451;52.476;13.316;2023-05-14T03:31:43;12.33;;;6.67;;
6825;SDS011;3451;52.476;13.316;2023-05-14T03:34:10;8.80;;;6.30;;
6825;SDS011;3451;52.476;13.316;2023-05-14T03:36:36;8.67;;;6.27;;
6825;SDS011;3451;52.476;13.316;2023-05-14T03:39:04;7.53;;;6.27;;
6825;SDS011;3451;52.476;13.316;2023-05-14T03:41:32;9.53;;;6.10;;
6825;SDS011;3451;52.476;13.316;2023-05-14T03:43:58;12.13;;;6.60;;
6825;SDS011;3451;52.476;13.316;2023-05-14T03:46:24;7.57;;;6.23;;
6825;SDS011;3451;52.476;13.316;2023-05-14T03:48:50;11.20;;;6.47;;
6825;SDS011;3451;52.476;13.316;2023-05-14T03:51:17;10.93;;;6.80;;
6825;SDS011;3451;52.476;13.316;2023-05-14T03:53:43;8.97;;;6.93;;
6825;SDS011;3451;52.476;13.316;2023-05-14T03:56:10;12.47;;;6.60;;
6825;SDS011;3451;52.476;13.316;2023-05-14T03:58:36;12.07;;;7.67;;
6825;SDS011;3451;52.476;13.316;2023-05-14T04:01:02;10.93;;;6.93;;
6825;SDS011;3451;52.476;13.316;2023-05-14T04:03:28;9.37;;;7.17;;
6825;SDS011;3451;52.476;13.316;2023-05-14T04:05:55;11.90;;;7.47;;
6825;SDS011;3451;52.476;13.316;2023-05-14T04:08:22;12.97;;;6.80;;
6825;SDS011;3451;52.476;13.316;2023-05-14T04:10:49;11.67;;;7.17;;
6825;SDS011;3451;52.476;13.316;2023-05-14T04:13:15;9.47;;;6.83;;
6825;SDS011;3451;52.476;13.316;2023-05-14T04:15:41;11.83;;;6.40;;
6825;SDS011;3451;52.476;13.316;2023-05-14T04:18:08;9.10;;;6.63;;
6825;SDS011;3451;52.476;13.316;2023-05-14T04:20:34;11.50;;;7.07;;
6825;SDS011;3451;52.476;13.316;2023-05-14T04:23:00;11.53;;;6.83;;
6825;SDS011;3451;52.476;13.316;2023-05-14T04:25:27;9.30;;;6.90;;
6825;SDS011;3451;52.476;13.316;2023-05-14T04:27:53;10.70;;;7.30;;
6825;SDS011;3451;52.476;13.316;2023-05-14T04:30:19;12.33;;;7.20;;
6825;SDS011;3451;52.476;13.316;2023-05-14T04:32:46;13.03;;;7.63;;
6825;SDS011;3451;52.476;13.316;2023-05-14T04:35:12;9.73;;;7.03;;
6825;SDS011;3451;52.476;13.316;2023-05-14T04:37:39;11.20;;;6.63;;
6825;SDS011;3451;52.476;13.316;2023-05-14T04:40:07;11.80;;;7.03;;
6825;SDS011;3451;52.476;13.316;2023-05-14T04:42:33;11.93;;;7.20;;
6825;SDS011;3451;52.476;13.316;2023-05-14T04:45:00;12.33;;;7.13;;
6825;SDS011;3451;52.476;13.316;2023-05-14T04:47:26;11.23;;;6.17;;
6825;SDS011;3451;52.476;13.316;2023-05-14T04:49:52;11.63;;;7.27;;
6825;SDS011;3451;52.476;13.316;2023-05-14T04:52:18;13.63;;;7.33;;
6825;SDS011;3451;52.476;13.316;2023-05-14T04:54:45;11.07;;;7.10;;
6825;SDS011;3451;52.476;13.316;2023-05-14T04:57:11;11.73;;;7.30;;
6825;SDS011;3451;52.476;13.316;2023-05-14T04:59:37;9.43;;;6.93;;
6825;SDS011;3451;52.476;13.316;2023-05-14T05:02:04;8.77;;;6.83;;
6825;SDS011;3451;52.476;13.316;2023-05-14T05:04:30;9.77;;;6.93;;
6825;SDS011;3451;52.476;13.316;2023-05-14T05:06:56;8.70;;;7.03;;
6825;SDS011;3451;52.476;13.316;2023-05-14T05:09:23;15.30;;;7.20;;
6825;SDS011;3451;52.476;13.316;2023-05-14T05:11:49;10.57;;;7.33;;
6825;SDS011;3451;52.476;13.316;2023-05-14T05:14:15;11.13;;;6.80;;
6825;SDS011;3451;52.476;13.316;2023-05-14T05:16:42;13.10;;;6.80;;
6825;SDS011;3451;52.476;13.316;2023-05-14T05:19:08;11.07;;;7.03;;
6825;SDS011;3451;52.476;13.316;2023-05-14T05:21:34;11.60;;;7.03;;
6825;SDS011;3451;52.476;13.316;2023-05-14T05:24:01;9.97;;;7.03;;
6825;SDS011;3451;52.476;13.316;2023-05-14T05:26:27;10.57;;;6.73;;
6825;SDS011;3451;52.476;13.316;2023-05-14T05:28:54;9.60;;;6.73;;
6825;SDS011;3451;52.476;13.316;2023-05-14T05:31:20;12.20;;;7.13;;
6825;SDS011;3451;52.476;13.316;2023-05-14T05:33:46;9.50;;;6.47;;
6825;SDS011;3451;52.476;13.316;2023-05-14T05:36:13;12.90;;;6.23;;
6825;SDS011;3451;52.476;13.316;2023-05-14T05:38:39;10.00;;;6.70;;
6825;SDS011;3451;52.476;13.316;2023-05-14T05:41:05;8.70;;;6.73;;
6825;SDS011;3451;52.476;13.316;2023-05-14T05:43:32;10.73;;;6.83;;
6825;SDS011;3451;52.476;13.316;2023-05-14T05:45:59;8.73;;;6.70;;
6825;SDS011;3451;52.476;13.316;2023-05-14T05:48:26;12.20;;;6.87;;
6825;SDS011;3451;52.476;13.316;2023-05-14T05:50:52;8.63;;;6.17;;
6825;SDS011;3451;52.476;13.316;2023-05-14T05:53:19;9.47;;;6.20;;
6825;SDS011;3451;52.476;13.316;2023-05-14T05:55:45;11.00;;;6.67;;
6825;SDS011;3451;52.476;13.316;2023-05-14T05:58:11;10.97;;;6.40;;
6825;SDS011;3451;52.476;13.316;2023-05-14T06:00:40;10.60;;;6.50;;
6825;SDS011;3451;52.476;13.316;2023-05-14T06:03:07;8.40;;;6.20;;
6825;SDS011;3451;52.476;13.316;2023-05-14T06:05:33;11.10;;;6.50;;
6825;SDS011;3451;52.476;13.316;2023-05-14T06:07:59;9.07;;;6.00;;
6825;SDS011;3451;52.476;13.316;2023-05-14T06:10:25;10.70;;;6.87;;
6825;SDS011;3451;52.476;13.316;2023-05-14T06:12:52;9.17;;;6.17;;
6825;SDS011;3451;52.476;13.316;2023-05-14T06:15:18;11.13;;;6.50;;
6825;SDS011;3451;52.476;13.316;2023-05-14T06:17:45;9.37;;;6.07;;
6825;SDS011;3451;52.476;13.316;2023-05-14T06:20:11;10.00;;;5.63;;
6825;SDS011;3451;52.476;13.316;2023-05-14T06:22:38;8.47;;;6.47;;
6825;SDS011;3451;52.476;13.316;2023-05-14T06:25:04;9.77;;;5.70;;
6825;SDS011;3451;52.476;13.316;2023-05-14T06:27:30;8.77;;;6.10;;
6825;SDS011;3451;52.476;13.316;2023-05-14T06:29:57;10.87;;;5.93;;
6825;SDS011;3451;52.476;13.316;2023-05-14T06:32:23;12.30;;;5.97;;
6825;SDS011;3451;52.476;13.316;2023-05-14T06:34:49;8.67;;;6.23;;
6825;SDS011;3451;52.476;13.316;2023-05-14T06:37:16;6.33;;;5.33;;
6825;SDS011;3451;52.476;13.316;2023-05-14T06:39:42;12.90;;;6.00;;
6825;SDS011;3451;52.476;13.316;2023-05-14T06:42:15;10.43;;;6.13;;
6825;SDS011;3451;52.476;13.316;2023-05-14T06:44:41;10.53;;;6.17;;
6825;SDS011;3451;52.476;13.316;2023-05-14T06:47:08;7.57;;;5.37;;
6825;SDS011;3451;52.476;13.316;2023-05-14T06:49:34;11.73;;;6.40;;
6825;SDS011;3451;52.476;13.316;2023-05-14T06:52:01;8.97;;;5.80;;
6825;SDS011;3451;52.476;13.316;2023-05-14T06:54:27;10.30;;;5.73;;
6825;SDS011;3451;52.476;13.316;2023-05-14T06:56:53;8.30;;;5.43;;
6825;SDS011;3451;52.476;13.316;2023-05-14T06:59:20;10.37;;;5.83;;
6825;SDS011;3451;52.476;13.316;2023-05-14T07:01:46;7.87;;;5.60;;
6825;SDS011;3451;52.476;13.316;2023-05-14T07:04:12;8.30;;;5.57;;
6825;SDS011;3451;52.476;13.316;2023-05-14T07:06:39;8.30;;;5.87;;
6825;SDS011;3451;52.476;13.316;2023-05-14T07:09:05;8.43;;;5.50;;
6825;SDS011;3451;52.476;13.316;2023-05-14T07:11:35;7.27;;;5.20;;
6825;SDS011;3451;52.476;13.316;2023-05-14T07:14:01;9.23;;;5.77;;
6825;SDS011;3451;52.476;13.316;2023-05-14T07:16:28;10.87;;;5.73;;
6825;SDS011;3451;52.476;13.316;2023-05-14T07:18:54;8.73;;;5.40;;
6825;SDS011;3451;52.476;13.316;2023-05-14T07:21:20;7.37;;;5.53;;
6825;SDS011;3451;52.476;13.316;2023-05-14T07:23:47;11.60;;;5.80;;
6825;SDS011;3451;52.476;13.316;2023-05-14T07:26:13;8.67;;;5.53;;
6825;SDS011;3451;52.476;13.316;2023-05-14T07:28:39;9.60;;;5.13;;
6825;SDS011;3451;52.476;13.316;2023-05-14T07:31:06;9.23;;;5.00;;
6825;SDS011;3451;52.476;13.316;2023-05-14T07:33:34;9.07;;;5.57;;
6825;SDS011;3451;52.476;13.316;2023-05-14T07:36:01;7.13;;;4.93;;
6825;SDS011;3451;52.476;13.316;2023-05-14T07:38:27;7.07;;;4.60;;
6825;SDS011;3451;52.476;13.316;2023-05-14T07:40:54;7.43;;;4.87;;
6825;SDS011;3451;52.476;13.316;2023-05-14T07:43:21;8.77;;;4.47;;
6825;SDS011;3451;52.476;13.316;2023-05-14T07:45:47;7.10;;;4.70;;
6825;SDS011;3451;52.476;13.316;2023-05-14T07:48:13;5.70;;;4.13;;
6825;SDS011;3451;52.476;13.316;2023-05-14T07:50:40;6.60;;;4.33;;
6825;SDS011;3451;52.476;13.316;2023-05-14T07:53:06;6.63;;;4.60;;
6825;SDS011;3451;52.476;13.316;2023-05-14T07:55:33;4.97;;;4.10;;
6825;SDS011;3451;52.476;13.316;2023-05-14T07:57:59;5.23;;;4.00;;
6825;SDS011;3451;52.476;13.316;2023-05-14T08:00:26;7.90;;;4.57;;
6825;SDS011;3451;52.476;13.316;2023-05-14T08:02:53;9.67;;;4.47;;
6825;SDS011;3451;52.476;13.316;2023-05-14T08:05:20;5.97;;;3.80;;
6825;SDS011;3451;52.476;13.316;2023-05-14T08:07:46;9.90;;;4.30;;
6825;SDS011;3451;52.476;13.316;2023-05-14T08:10:13;9.23;;;3.80;;
6825;SDS011;3451;52.476;13.316;2023-05-14T08:12:39;7.57;;;3.57;;
6825;SDS011;3451;52.476;13.316;2023-05-14T08:15:06;5.87;;;3.50;;
6825;SDS011;3451;52.476;13.316;2023-05-14T08:17:32;4.97;;;3.70;;
6825;SDS011;3451;52.476;13.316;2023-05-14T08:19:59;7.07;;;3.70;;
6825;SDS011;3451;52.476;13.316;2023-05-14T08:22:25;10.93;;;4.10;;
6825;SDS011;3451;52.476;13.316;2023-05-14T08:24:52;6.83;;;3.60;;
6825;SDS011;3451;52.476;13.316;2023-05-14T08:27:19;8.07;;;3.90;;
6825;SDS011;3451;52.476;13.316;2023-05-14T08:29:46;8.03;;;3.73;;
6825;SDS011;3451;52.476;13.316;2023-05-14T08:32:12;5.80;;;3.57;;
6825;SDS011;3451;52.476;13.316;2023-05-14T08:34:49;4.80;;;3.07;;
6825;SDS011;3451;52.476;13.316;2023-05-14T08:37:15;4.70;;;3.63;;
6825;SDS011;3451;52.476;13.316;2023-05-14T08:39:42;5.23;;;3.50;;
6825;SDS011;3451;52.476;13.316;2023-05-14T08:42:08;4.00;;;2.90;;
6825;SDS011;3451;52.476;13.316;2023-05-14T08:44:37;7.17;;;3.43;;
6825;SDS011;3451;52.476;13.316;2023-05-14T08:47:04;5.80;;;3.77;;
6825;SDS011;3451;52.476;13.316;2023-05-14T08:49:45;5.33;;;3.23;;
6825;SDS011;3451;52.476;13.316;2023-05-14T08:52:11;5.17;;;3.33;;
6825;SDS011;3451;52.476;13.316;2023-05-14T08:54:41;7.57;;;3.43;;
6825;SDS011;3451;52.476;13.316;2023-05-14T08:57:08;4.83;;;3.17;;
6825;SDS011;3451;52.476;13.316;2023-05-14T08:59:35;5.97;;;3.40;;
6825;SDS011;3451;52.476;13.316;2023-05-14T09:02:01;5.93;;;3.63;;
6825;SDS011;3451;52.476;13.316;2023-05-14T09:04:28;8.47;;;3.43;;
6825;SDS011;3451;52.476;13.316;2023-05-14T09:06:55;4.57;;;3.10;;
6825;SDS011;3451;52.476;13.316;2023-05-14T09:09:21;6.43;;;3.47;;
6825;SDS011;3451;52.476;13.316;2023-05-14T09:11:48;4.80;;;3.03;;
6825;SDS011;3451;52.476;13.316;2023-05-14T09:14:15;8.77;;;3.37;;
6825;SDS011;3451;52.476;13.316;2023-05-14T09:16:43;5.47;;;3.90;;
6825;SDS011;3451;52.476;13.316;2023-05-14T09:19:10;4.93;;;3.23;;
6825;SDS011;3451;52.476;13.316;2023-05-14T09:21:37;4.17;;;2.83;;
6825;SDS011;3451;52.476;13.316;2023-05-14T09:24:04;7.07;;;3.37;;
6825;SDS011;3451;52.476;13.316;2023-05-14T09:26:30;4.63;;;3.33;;
6825;SDS011;3451;52.476;13.316;2023-05-14T09:28:57;5.07;;;3.30;;
6825;SDS011;3451;52.476;13.316;2023-05-14T09:31:31;4.47;;;3.17;;
6825;SDS011;3451;52.476;13.316;2023-05-14T09:33:58;5.03;;;3.23;;
6825;SDS011;3451;52.476;13.316;2023-05-14T09:36:25;5.13;;;2.90;;
6825;SDS011;3451;52.476;13.316;2023-05-14T09:38:59;5.40;;;2.87;;
6825;SDS011;3451;52.476;13.316;2023-05-14T09:41:25;7.50;;;2.90;;
6825;SDS011;3451;52.476;13.316;2023-05-14T09:43:51;5.20;;;3.20;;
6825;SDS011;3451;52.476;13.316;2023-05-14T09:46:18;6.53;;;3.20;;
6825;SDS011;3451;52.476;13.316;2023-05-14T09:48:44;5.63;;;2.73;;
6825;SDS011;3451;52.476;13.316;2023-05-14T09:51:11;4.53;;;3.03;;
6825;SDS011;3451;52.476;13.316;2023-05-14T09:53:38;4.53;;;2.90;;
6825;SDS011;3451;52.476;13.316;2023-05-14T09:56:06;5.17;;;3.20;;
6825;SDS011;3451;52.476;13.316;2023-05-14T09:58:32;6.27;;;3.10;;
6825;SDS011;3451;52.476;13.316;2023-05-14T10:00:58;7.77;;;3.17;;
6825;SDS011;3451;52.476;13.316;2023-05-14T10:03:27;5.40;;;3.20;;
6825;SDS011;3451;52.476;13.316;2023-05-14T10:05:59;7.53;;;3.40;;
6825;SDS011;3451;52.476;13.316;2023-05-14T10:08:32;4.47;;;3.17;;
6825;SDS011;3451;52.476;13.316;2023-05-14T10:11:00;6.20;;;3.60;;
6825;SDS011;3451;52.476;13.316;2023-05-14T10:13:29;6.67;;;3.17;;
6825;SDS011;3451;52.476;13.316;2023-05-14T10:18:32;4.53;;;3.50;;
6825;SDS011;3451;52.476;13.316;2023-05-14T10:21:03;4.33;;;3.30;;
6825;SDS011;3451;52.476;13.316;2023-05-14T10:23:29;6.43;;;3.43;;
6825;SDS011;3451;52.476;13.316;2023-05-14T10:25:57;9.47;;;3.83;;
6825;SDS011;3451;52.476;13.316;2023-05-14T10:28:23;8.03;;;3.57;;
6825;SDS011;3451;52.476;13.316;2023-05-14T10:30:50;5.53;;;3.30;;
6825;SDS011;3451;52.476;13.316;2023-05-14T10:33:16;6.30;;;3.53;;
6825;SDS011;3451;52.476;13.316;2023-05-14T10:38:16;5.07;;;3.17;;
6825;SDS011;3451;52.476;13.316;2023-05-14T10:40:42;6.20;;;3.67;;
6825;SDS011;3451;52.476;13.316;2023-05-14T10:43:08;8.80;;;3.60;;
6825;SDS011;3451;52.476;13.316;2023-05-14T10:45:36;5.43;;;3.30;;
6825;SDS011;3451;52.476;13.316;2023-05-14T10:48:02;6.37;;;3.37;;
6825;SDS011;3451;52.476;13.316;2023-05-14T10:50:29;5.87;;;3.30;;
6825;SDS011;3451;52.476;13.316;2023-05-14T10:52:55;10.47;;;3.60;;
6825;SDS011;3451;52.476;13.316;2023-05-14T10:55:22;6.50;;;3.33;;
6825;SDS011;3451;52.476;13.316;2023-05-14T10:57:50;4.33;;;3.30;;
6825;SDS011;3451;52.476;13.316;2023-05-14T11:00:17;7.03;;;3.27;;
6825;SDS011;3451;52.476;13.316;2023-05-14T11:02:43;6.47;;;3.53;;
6825;SDS011;3451;52.476;13.316;2023-05-14T11:05:11;4.40;;;3.53;;
6825;SDS011;3451;52.476;13.316;2023-05-14T11:07:40;4.97;;;3.40;;
6825;SDS011;3451;52.476;13.316;2023-05-14T11:10:08;5.73;;;3.03;;
6825;SDS011;3451;52.476;13.316;2023-05-14T11:12:35;9.73;;;3.73;;
6825;SDS011;3451;52.476;13.316;2023-05-14T11:15:02;5.50;;;3.50;;
6825;SDS011;3451;52.476;13.316;2023-05-14T11:17:29;5.53;;;3.50;;
6825;SDS011;3451;52.476;13.316;2023-05-14T11:19:57;6.33;;;3.03;;
6825;SDS011;3451;52.476;13.316;2023-05-14T11:22:24;6.60;;;3.60;;
6825;SDS011;3451;52.476;13.316;2023-05-14T11:24:50;5.60;;;4.00;;
6825;SDS011;3451;52.476;13.316;2023-05-14T11:27:17;4.23;;;3.40;;
6825;SDS011;3451;52.476;13.316;2023-05-14T11:29:43;8.00;;;4.00;;
6825;SDS011;3451;52.476;13.316;2023-05-14T11:32:11;6.37;;;3.10;;
6825;SDS011;3451;52.476;13.316;2023-05-14T11:34:38;7.33;;;3.43;;
6825;SDS011;3451;52.476;13.316;2023-05-14T11:37:05;5.17;;;3.60;;
6825;SDS011;3451;52.476;13.316;2023-05-14T11:39:31;5.30;;;3.60;;
6825;SDS011;3451;52.476;13.316;2023-05-14T11:41:59;6.43;;;3.53;;
6825;SDS011;3451;52.476;13.316;2023-05-14T11:44:27;4.73;;;3.87;;
6825;SDS011;3451;52.476;13.316;2023-05-14T11:46:54;6.57;;;3.70;;
6825;SDS011;3451;52.476;13.316;2023-05-14T11:49:21;5.40;;;3.30;;
6825;SDS011;3451;52.476;13.316;2023-05-14T11:51:49;6.17;;;3.80;;
6825;SDS011;3451;52.476;13.316;2023-05-14T11:54:15;5.23;;;3.50;;
6825;SDS011;3451;52.476;13.316;2023-05-14T11:56:41;6.10;;;3.30;;
6825;SDS011;3451;52.476;13.316;2023-05-14T11:59:09;6.10;;;3.83;;
6825;SDS011;3451;52.476;13.316;2023-05-14T12:01:36;5.77;;;4.17;;
6825;SDS011;3451;52.476;13.316;2023-05-14T12:04:03;7.10;;;3.73;;
6825;SDS011;3451;52.476;13.316;2023-05-14T12:06:30;6.13;;;3.77;;
6825;SDS011;3451;52.476;13.316;2023-05-14T12:08:57;5.77;;;4.00;;
6825;SDS011;3451;52.476;13.316;2023-05-14T12:11:23;7.80;;;3.87;;
6825;SDS011;3451;52.476;13.316;2023-05-14T12:13:49;5.87;;;3.90;;
6825;SDS011;3451;52.476;13.316;2023-05-14T12:16:19;6.30;;;3.70;;
6825;SDS011;3451;52.476;13.316;2023-05-14T12:18:45;6.90;;;3.67;;
6825;SDS011;3451;52.476;13.316;2023-05-14T12:21:12;7.43;;;3.90;;
6825;SDS011;3451;52.476;13.316;2023-05-14T12:23:38;7.67;;;3.67;;
6825;SDS011;3451;52.476;13.316;2023-05-14T12:26:05;7.80;;;3.60;;
6825;SDS011;3451;52.476;13.316;2023-05-14T12:28:32;4.60;;;3.83;;
6825;SDS011;3451;52.476;13.316;2023-05-14T12:31:02;5.80;;;3.70;;
6825;SDS011;3451;52.476;13.316;2023-05-14T12:33:28;5.90;;;3.90;;
6825;SDS011;3451;52.476;13.316;2023-05-14T12:35:55;6.50;;;4.10;;
6825;SDS011;3451;52.476;13.316;2023-05-14T12:38:39;7.07;;;3.73;;
6825;SDS011;3451;52.476;13.316;2023-05-14T12:41:06;9.13;;;3.90;;
6825;SDS011;3451;52.476;13.316;2023-05-14T12:43:32;4.93;;;3.67;;
6825;SDS011;3451;52.476;13.316;2023-05-14T12:45:58;5.90;;;4.00;;
6825;SDS011;3451;52.476;13.316;2023-05-14T12:48:25;6.97;;;4.00;;
6825;SDS011;3451;52.476;13.316;2023-05-14T12:50:51;6.87;;;3.77;;
6825;SDS011;3451;52.476;13.316;2023-05-14T12:53:17;7.63;;;3.67;;
6825;SDS011;3451;52.476;13.316;2023-05-14T12:55:44;4.97;;;3.40;;
6825;SDS011;3451;52.476;13.316;2023-05-14T12:58:10;8.57;;;4.17;;
6825;SDS011;3451;52.476;13.316;2023-05-14T13:00:36;5.73;;;3.63;;
6825;SDS011;3451;52.476;13.316;2023-05-14T13:03:03;6.63;;;3.40;;
6825;SDS011;3451;52.476;13.316;2023-05-14T13:05:29;11.03;;;4.27;;
6825;SDS011;3451;52.476;13.316;2023-05-14T13:07:57;6.23;;;3.60;;
6825;SDS011;3451;52.476;13.316;2023-05-14T13:10:23;8.57;;;4.10;;
6825;SDS011;3451;52.476;13.316;2023-05-14T13:12:50;6.63;;;3.80;;
6825;SDS011;3451;52.476;13.316;2023-05-14T13:15:17;7.73;;;4.13;;
6825;SDS011;3451;52.476;13.316;2023-05-14T13:17:44;5.03;;;3.60;;
6825;SDS011;3451;52.476;13.316;2023-05-14T13:20:10;3.77;;;3.37;;
6825;SDS011;3451;52.476;13.316;2023-05-14T13:22:36;8.03;;;3.97;;
6825;SDS011;3451;52.476;13.316;2023-05-14T13:25:03;6.10;;;3.30;;
6825;SDS011;3451;52.476;13.316;2023-05-14T13:30:21;7.13;;;3.63;;
6825;SDS011;3451;52.476;13.316;2023-05-14T13:32:48;4.93;;;3.47;;
6825;SDS011;3451;52.476;13.316;2023-05-14T13:35:14;4.87;;;3.20;;
6825;SDS011;3451;52.476;13.316;2023-05-14T13:37:43;6.07;;;3.53;;
6825;SDS011;3451;52.476;13.316;2023-05-14T13:40:10;5.93;;;3.80;;
6825;SDS011;3451;52.476;13.316;2023-05-14T13:42:36;6.23;;;3.73;;
6825;SDS011;3451;52.476;13.316;2023-05-14T13:45:05;7.77;;;3.90;;
6825;SDS011;3451;52.476;13.316;2023-05-14T13:47:31;6.43;;;3.70;;
6825;SDS011;3451;52.476;13.316;2023-05-14T13:49:58;5.07;;;3.67;;
6825;SDS011;3451;52.476;13.316;2023-05-14T13:52:25;7.03;;;3.40;;
6825;SDS011;3451;52.476;13.316;2023-05-14T13:54:51;10.23;;;4.40;;
6825;SDS011;3451;52.476;13.316;2023-05-14T13:57:18;10.23;;;3.90;;
6825;SDS011;3451;52.476;13.316;2023-05-14T13:59:44;8.17;;;3.67;;
6825;SDS011;3451;52.476;13.316;2023-05-14T14:02:11;5.00;;;3.37;;
6825;SDS011;3451;52.476;13.316;2023-05-14T14:04:37;6.13;;;3.43;;
6825;SDS011;3451;52.476;13.316;2023-05-14T14:07:03;6.57;;;3.57;;
6825;SDS011;3451;52.476;13.316;2023-05-14T14:09:30;5.17;;;3.63;;
6825;SDS011;3451;52.476;13.316;2023-05-14T14:12:02;5.80;;;3.63;;
6825;SDS011;3451;52.476;13.316;2023-05-14T14:14:28;6.03;;;3.40;;
6825;SDS011;3451;52.476;13.316;2023-05-14T14:16:54;6.73;;;3.40;;
6825;SDS011;3451;52.476;13.316;2023-05-14T14:19:21;8.10;;;3.67;;
6825;SDS011;3451;52.476;13.316;2023-05-14T14:21:47;6.53;;;3.40;;
6825;SDS011;3451;52.476;13.316;2023-05-14T14:24:19;5.87;;;2.90;;
6825;SDS011;3451;52.476;13.316;2023-05-14T14:26:45;7.53;;;3.10;;
6825;SDS011;3451;52.476;13.316;2023-05-14T14:29:11;8.00;;;3.47;;
6825;SDS011;3451;52.476;13.316;2023-05-14T14:31:38;5.33;;;3.20;;
6825;SDS011;3451;52.476;13.316;2023-05-14T14:34:04;7.20;;;3.80;;
6825;SDS011;3451;52.476;13.316;2023-05-14T14:36:31;7.40;;;3.93;;
6825;SDS011;3451;52.476;13.316;2023-05-14T14:38:57;9.87;;;3.80;;
6825;SDS011;3451;52.476;13.316;2023-05-14T14:41:23;6.47;;;3.40;;
6825;SDS011;3451;52.476;13.316;2023-05-14T14:43:49;5.57;;;3.60;;
6825;SDS011;3451;52.476;13.316;2023-05-14T14:46:16;4.33;;;3.20;;
6825;SDS011;3451;52.476;13.316;2023-05-14T14:48:42;7.27;;;3.30;;
6825;SDS011;3451;52.476;13.316;2023-05-14T14:51:09;9.80;;;3.50;;
6825;SDS011;3451;52.476;13.316;2023-05-14T14:53:35;6.77;;;3.53;;
6825;SDS011;3451;52.476;13.316;2023-05-14T14:56:02;5.80;;;3.33;;
6825;SDS011;3451;52.476;13.316;2023-05-14T14:58:29;6.57;;;3.40;;
6825;SDS011;3451;52.476;13.316;2023-05-14T15:00:56;4.70;;;3.40;;
6825;SDS011;3451;52.476;13.316;2023-05-14T15:03:23;5.70;;;3.50;;
6825;SDS011;3451;52.476;13.316;2023-05-14T15:05:50;5.77;;;3.20;;